sensor_id;sensor_type;location;lat;lon;timestamp;temperature;humidity
48579;DHT22;34357;51.948;6.132;2024-01-07T00:01:38;1.40;92.60
48579;DHT22;34357;51.948;6.132;2024-01-07T00:04:04;1.50;92.70
48579;DHT22;34357;51.948;6.132;2024-01-07T00:06:30;1.50;92.70
48579;DHT22;34357;51.948;6.132;2024-01-07T00:08:56;1.40;92.70
48579;DHT22;34357;51.948;6.132;2024-01-07T00:11:22;1.40;92.70
48579;DHT22;34357;51.948;6.132;2024-01-07T00:13:48;1.40;92.70
48579;DHT22;34357;51.948;6.132;2024-01-07T00:16:14;1.50;92.80
48579;DHT22;34357;51.948;6.132;2024-01-07T00:18:40;1.40;92.80
48579;DHT22;34357;51.948;6.132;2024-01-07T00:21:05;1.40;92.80
48579;DHT22;34357;51.948;6.132;2024-01-07T00:23:31;1.40;92.80
48579;DHT22;34357;51.948;6.132;2024-01-07T00:25:57;1.40;92.80
48579;DHT22;34357;51.948;6.132;2024-01-07T00:28:23;1.40;92.80
48579;DHT22;34357;51.948;6.132;2024-01-07T00:30:49;1.40;92.80
48579;DHT22;34357;51.948;6.132;2024-01-07T00:33:14;1.40;92.80
48579;DHT22;34357;51.948;6.132;2024-01-07T00:35:40;1.40;92.80
48579;DHT22;34357;51.948;6.132;2024-01-07T00:38:06;1.40;92.80
48579;DHT22;34357;51.948;6.132;2024-01-07T00:40:32;1.40;92.90
48579;DHT22;34357;51.948;6.132;2024-01-07T00:42:58;1.40;92.80
48579;DHT22;34357;51.948;6.132;2024-01-07T00:45:26;1.40;92.80
48579;DHT22;34357;51.948;6.132;2024-01-07T00:47:52;1.40;92.70
48579;DHT22;34357;51.948;6.132;2024-01-07T00:50:20;1.40;92.70
48579;DHT22;34357;51.948;6.132;2024-01-07T00:52:46;1.40;92.70
48579;DHT22;34357;51.948;6.132;2024-01-07T00:55:15;1.40;92.70
48579;DHT22;34357;51.948;6.132;2024-01-07T00:57:41;1.40;92.70
48579;DHT22;34357;51.948;6.132;2024-01-07T01:00:07;1.40;92.70
48579;DHT22;34357;51.948;6.132;2024-01-07T01:02:33;1.40;92.70
48579;DHT22;34357;51.948;6.132;2024-01-07T01:04:59;1.30;92.60
48579;DHT22;34357;51.948;6.132;2024-01-07T01:07:25;1.40;92.60
48579;DHT22;34357;51.948;6.132;2024-01-07T01:09:51;1.40;92.60
48579;DHT22;34357;51.948;6.132;2024-01-07T01:12:17;1.30;92.60
48579;DHT22;34357;51.948;6.132;2024-01-07T01:14:43;1.30;92.60
48579;DHT22;34357;51.948;6.132;2024-01-07T01:17:09;1.30;92.60
48579;DHT22;34357;51.948;6.132;2024-01-07T01:19:34;1.30;92.60
48579;DHT22;34357;51.948;6.132;2024-01-07T01:22:00;1.30;92.60
48579;DHT22;34357;51.948;6.132;2024-01-07T01:24:26;1.30;92.60
48579;DHT22;34357;51.948;6.132;2024-01-07T01:26:52;1.40;92.60
48579;DHT22;34357;51.948;6.132;2024-01-07T01:29:18;1.40;92.60
48579;DHT22;34357;51.948;6.132;2024-01-07T01:31:44;1.40;92.60
48579;DHT22;34357;51.948;6.132;2024-01-07T01:34:10;1.30;92.70
48579;DHT22;34357;51.948;6.132;2024-01-07T01:36:36;1.30;92.70
48579;DHT22;34357;51.948;6.132;2024-01-07T01:39:05;1.30;92.70
48579;DHT22;34357;51.948;6.132;2024-01-07T01:41:31;1.30;92.70
48579;DHT22;34357;51.948;6.132;2024-01-07T01:44:04;1.30;92.70
48579;DHT22;34357;51.948;6.132;2024-01-07T01:46:30;1.30;92.70
48579;DHT22;34357;51.948;6.132;2024-01-07T01:48:56;1.30;92.80
48579;DHT22;34357;51.948;6.132;2024-01-07T01:51:22;1.30;92.60
48579;DHT22;34357;51.948;6.132;2024-01-07T01:53:49;1.30;92.60
48579;DHT22;34357;51.948;6.132;2024-01-07T01:56:18;1.30;92.60
48579;DHT22;34357;51.948;6.132;2024-01-07T01:58:46;1.20;92.60
48579;DHT22;34357;51.948;6.132;2024-01-07T02:01:13;1.30;92.50
48579;DHT22;34357;51.948;6.132;2024-01-07T02:03:39;1.20;92.40
48579;DHT22;34357;51.948;6.132;2024-01-07T02:06:06;1.20;92.30
48579;DHT22;34357;51.948;6.132;2024-01-07T02:08:33;1.20;92.30
48579;DHT22;34357;51.948;6.132;2024-01-07T02:10:59;1.20;92.20
48579;DHT22;34357;51.948;6.132;2024-01-07T02:13:39;1.20;92.10
48579;DHT22;34357;51.948;6.132;2024-01-07T02:16:06;1.20;92.00
48579;DHT22;34357;51.948;6.132;2024-01-07T02:18:32;1.30;92.00
48579;DHT22;34357;51.948;6.132;2024-01-07T02:20:58;1.20;91.80
48579;DHT22;34357;51.948;6.132;2024-01-07T02:23:23;1.30;91.80
48579;DHT22;34357;51.948;6.132;2024-01-07T02:25:49;1.30;91.90
48579;DHT22;34357;51.948;6.132;2024-01-07T02:28:15;1.30;91.90
48579;DHT22;34357;51.948;6.132;2024-01-07T02:30:41;1.20;91.80
48579;DHT22;34357;51.948;6.132;2024-01-07T02:33:07;1.20;91.90
48579;DHT22;34357;51.948;6.132;2024-01-07T02:35:33;1.20;92.00
48579;DHT22;34357;51.948;6.132;2024-01-07T02:37:59;1.20;91.90
48579;DHT22;34357;51.948;6.132;2024-01-07T02:40:25;1.10;91.90
48579;DHT22;34357;51.948;6.132;2024-01-07T02:42:50;1.20;91.80
48579;DHT22;34357;51.948;6.132;2024-01-07T02:45:16;1.10;91.80
48579;DHT22;34357;51.948;6.132;2024-01-07T02:47:42;1.10;91.80
48579;DHT22;34357;51.948;6.132;2024-01-07T02:50:08;1.10;91.70
48579;DHT22;34357;51.948;6.132;2024-01-07T02:52:34;1.10;91.70
48579;DHT22;34357;51.948;6.132;2024-01-07T02:55:00;1.10;91.60
48579;DHT22;34357;51.948;6.132;2024-01-07T02:57:27;1.10;91.50
48579;DHT22;34357;51.948;6.132;2024-01-07T02:59:53;1.10;91.50
48579;DHT22;34357;51.948;6.132;2024-01-07T03:02:19;1.10;91.40
48579;DHT22;34357;51.948;6.132;2024-01-07T03:04:44;1.10;91.40
48579;DHT22;34357;51.948;6.132;2024-01-07T03:07:11;1.00;91.40
48579;DHT22;34357;51.948;6.132;2024-01-07T03:09:37;1.00;91.30
48579;DHT22;34357;51.948;6.132;2024-01-07T03:12:03;1.00;91.30
48579;DHT22;34357;51.948;6.132;2024-01-07T03:14:29;1.00;91.40
48579;DHT22;34357;51.948;6.132;2024-01-07T03:16:55;1.00;91.50
48579;DHT22;34357;51.948;6.132;2024-01-07T03:19:21;1.00;91.60
48579;DHT22;34357;51.948;6.132;2024-01-07T03:21:48;0.90;91.50
48579;DHT22;34357;51.948;6.132;2024-01-07T03:24:14;0.90;91.60
48579;DHT22;34357;51.948;6.132;2024-01-07T03:26:40;0.90;91.80
48579;DHT22;34357;51.948;6.132;2024-01-07T03:29:06;0.90;91.90
48579;DHT22;34357;51.948;6.132;2024-01-07T03:31:31;0.90;92.00
48579;DHT22;34357;51.948;6.132;2024-01-07T03:33:57;0.90;92.10
48579;DHT22;34357;51.948;6.132;2024-01-07T03:36:23;0.90;92.20
48579;DHT22;34357;51.948;6.132;2024-01-07T03:38:49;0.80;92.20
48579;DHT22;34357;51.948;6.132;2024-01-07T03:41:16;0.90;92.30
48579;DHT22;34357;51.948;6.132;2024-01-07T03:43:44;0.80;92.30
48579;DHT22;34357;51.948;6.132;2024-01-07T03:46:14;0.80;92.30
48579;DHT22;34357;51.948;6.132;2024-01-07T03:48:41;0.80;92.20
48579;DHT22;34357;51.948;6.132;2024-01-07T03:51:07;0.80;92.20
48579;DHT22;34357;51.948;6.132;2024-01-07T03:53:33;0.80;92.30
48579;DHT22;34357;51.948;6.132;2024-01-07T03:55:59;0.80;92.20
48579;DHT22;34357;51.948;6.132;2024-01-07T03:58:25;0.80;92.20
48579;DHT22;34357;51.948;6.132;2024-01-07T04:00:54;0.80;92.30
48579;DHT22;34357;51.948;6.132;2024-01-07T04:03:20;0.80;92.20
48579;DHT22;34357;51.948;6.132;2024-01-07T04:05:49;0.80;92.20
48579;DHT22;34357;51.948;6.132;2024-01-07T04:08:15;0.70;92.20
48579;DHT22;34357;51.948;6.132;2024-01-07T04:10:43;0.80;92.20
48579;DHT22;34357;51.948;6.132;2024-01-07T04:13:09;0.70;92.20
48579;DHT22;34357;51.948;6.132;2024-01-07T04:15:35;0.80;92.20
48579;DHT22;34357;51.948;6.132;2024-01-07T04:18:02;0.80;92.30
48579;DHT22;34357;51.948;6.132;2024-01-07T04:20:29;0.70;92.20
48579;DHT22;34357;51.948;6.132;2024-01-07T04:22:56;0.70;92.30
48579;DHT22;34357;51.948;6.132;2024-01-07T04:25:23;0.70;92.40
48579;DHT22;34357;51.948;6.132;2024-01-07T04:27:49;0.60;92.40
48579;DHT22;34357;51.948;6.132;2024-01-07T04:30:15;0.60;92.40
48579;DHT22;34357;51.948;6.132;2024-01-07T04:32:41;0.60;92.50
48579;DHT22;34357;51.948;6.132;2024-01-07T04:35:07;0.60;92.60
48579;DHT22;34357;51.948;6.132;2024-01-07T04:37:33;0.50;92.70
48579;DHT22;34357;51.948;6.132;2024-01-07T04:39:59;0.50;92.70
48579;DHT22;34357;51.948;6.132;2024-01-07T04:42:25;0.60;92.70
48579;DHT22;34357;51.948;6.132;2024-01-07T04:44:50;0.60;92.60
48579;DHT22;34357;51.948;6.132;2024-01-07T04:47:30;0.50;92.50
48579;DHT22;34357;51.948;6.132;2024-01-07T04:49:57;0.50;92.40
48579;DHT22;34357;51.948;6.132;2024-01-07T04:52:23;0.50;92.40
48579;DHT22;34357;51.948;6.132;2024-01-07T04:54:53;0.60;92.30
48579;DHT22;34357;51.948;6.132;2024-01-07T04:57:20;0.60;92.20
48579;DHT22;34357;51.948;6.132;2024-01-07T04:59:46;0.60;92.10
48579;DHT22;34357;51.948;6.132;2024-01-07T05:02:12;0.60;92.00
48579;DHT22;34357;51.948;6.132;2024-01-07T05:04:38;0.60;91.80
48579;DHT22;34357;51.948;6.132;2024-01-07T05:07:05;0.60;91.40
48579;DHT22;34357;51.948;6.132;2024-01-07T05:09:32;0.60;91.30
48579;DHT22;34357;51.948;6.132;2024-01-07T05:11:58;0.60;91.20
48579;DHT22;34357;51.948;6.132;2024-01-07T05:14:24;0.60;91.10
48579;DHT22;34357;51.948;6.132;2024-01-07T05:16:50;0.60;91.10
48579;DHT22;34357;51.948;6.132;2024-01-07T05:19:22;0.60;91.10
48579;DHT22;34357;51.948;6.132;2024-01-07T05:21:48;0.60;91.00
48579;DHT22;34357;51.948;6.132;2024-01-07T05:24:14;0.60;90.90
48579;DHT22;34357;51.948;6.132;2024-01-07T05:26:42;0.60;90.80
48579;DHT22;34357;51.948;6.132;2024-01-07T05:29:08;0.60;90.70
48579;DHT22;34357;51.948;6.132;2024-01-07T05:31:34;0.50;90.70
48579;DHT22;34357;51.948;6.132;2024-01-07T05:34:00;0.50;90.70
48579;DHT22;34357;51.948;6.132;2024-01-07T05:36:25;0.60;90.60
48579;DHT22;34357;51.948;6.132;2024-01-07T05:38:51;0.60;90.40
48579;DHT22;34357;51.948;6.132;2024-01-07T05:41:17;0.60;90.40
48579;DHT22;34357;51.948;6.132;2024-01-07T05:43:43;0.60;90.60
48579;DHT22;34357;51.948;6.132;2024-01-07T05:46:09;0.60;90.50
48579;DHT22;34357;51.948;6.132;2024-01-07T05:48:44;0.60;90.40
48579;DHT22;34357;51.948;6.132;2024-01-07T05:51:10;0.60;90.40
48579;DHT22;34357;51.948;6.132;2024-01-07T05:53:36;0.50;90.40
48579;DHT22;34357;51.948;6.132;2024-01-07T05:56:02;0.60;90.40
48579;DHT22;34357;51.948;6.132;2024-01-07T05:58:29;0.60;90.30
48579;DHT22;34357;51.948;6.132;2024-01-07T06:00:55;0.50;90.20
48579;DHT22;34357;51.948;6.132;2024-01-07T06:03:21;0.50;90.30
48579;DHT22;34357;51.948;6.132;2024-01-07T06:05:47;0.50;90.10
48579;DHT22;34357;51.948;6.132;2024-01-07T06:08:13;0.50;90.00
48579;DHT22;34357;51.948;6.132;2024-01-07T06:10:40;0.50;89.90
48579;DHT22;34357;51.948;6.132;2024-01-07T06:13:06;0.50;89.80
48579;DHT22;34357;51.948;6.132;2024-01-07T06:15:32;0.40;89.80
48579;DHT22;34357;51.948;6.132;2024-01-07T06:17:58;0.40;89.80
48579;DHT22;34357;51.948;6.132;2024-01-07T06:20:24;0.40;89.80
48579;DHT22;34357;51.948;6.132;2024-01-07T06:22:50;0.40;89.90
48579;DHT22;34357;51.948;6.132;2024-01-07T06:25:16;0.40;89.70
48579;DHT22;34357;51.948;6.132;2024-01-07T06:27:42;0.30;89.50
48579;DHT22;34357;51.948;6.132;2024-01-07T06:30:08;0.40;89.60
48579;DHT22;34357;51.948;6.132;2024-01-07T06:32:34;0.40;89.70
48579;DHT22;34357;51.948;6.132;2024-01-07T06:35:01;0.30;89.60
48579;DHT22;34357;51.948;6.132;2024-01-07T06:37:28;0.30;89.50
48579;DHT22;34357;51.948;6.132;2024-01-07T06:39:58;0.30;89.50
48579;DHT22;34357;51.948;6.132;2024-01-07T06:42:24;0.30;89.40
48579;DHT22;34357;51.948;6.132;2024-01-07T06:44:50;0.40;89.50
48579;DHT22;34357;51.948;6.132;2024-01-07T06:47:16;0.40;89.50
48579;DHT22;34357;51.948;6.132;2024-01-07T06:49:42;0.40;89.50
48579;DHT22;34357;51.948;6.132;2024-01-07T06:52:08;0.30;89.50
48579;DHT22;34357;51.948;6.132;2024-01-07T06:54:34;0.40;89.40
48579;DHT22;34357;51.948;6.132;2024-01-07T06:56:59;0.30;89.10
48579;DHT22;34357;51.948;6.132;2024-01-07T06:59:25;0.30;89.10
48579;DHT22;34357;51.948;6.132;2024-01-07T07:01:51;0.30;89.20
48579;DHT22;34357;51.948;6.132;2024-01-07T07:04:19;0.40;89.30
48579;DHT22;34357;51.948;6.132;2024-01-07T07:06:45;0.40;89.30
48579;DHT22;34357;51.948;6.132;2024-01-07T07:09:10;0.40;89.10
48579;DHT22;34357;51.948;6.132;2024-01-07T07:11:38;0.30;88.90
48579;DHT22;34357;51.948;6.132;2024-01-07T07:14:04;0.30;88.80
48579;DHT22;34357;51.948;6.132;2024-01-07T07:16:30;0.30;88.70
48579;DHT22;34357;51.948;6.132;2024-01-07T07:18:56;0.30;88.80
48579;DHT22;34357;51.948;6.132;2024-01-07T07:21:21;0.30;88.80
48579;DHT22;34357;51.948;6.132;2024-01-07T07:23:48;0.30;88.60
48579;DHT22;34357;51.948;6.132;2024-01-07T07:26:14;0.30;88.50
48579;DHT22;34357;51.948;6.132;2024-01-07T07:28:40;0.30;88.80
48579;DHT22;34357;51.948;6.132;2024-01-07T07:31:06;0.30;88.80
48579;DHT22;34357;51.948;6.132;2024-01-07T07:33:31;0.30;89.00
48579;DHT22;34357;51.948;6.132;2024-01-07T07:35:57;0.30;89.00
48579;DHT22;34357;51.948;6.132;2024-01-07T07:38:23;0.40;89.00
48579;DHT22;34357;51.948;6.132;2024-01-07T07:40:49;0.30;89.00
48579;DHT22;34357;51.948;6.132;2024-01-07T07:43:19;0.30;89.00
48579;DHT22;34357;51.948;6.132;2024-01-07T07:45:46;0.30;89.00
48579;DHT22;34357;51.948;6.132;2024-01-07T07:48:12;0.30;89.20
48579;DHT22;34357;51.948;6.132;2024-01-07T07:50:38;0.20;89.10
48579;DHT22;34357;51.948;6.132;2024-01-07T07:53:04;0.20;89.10
48579;DHT22;34357;51.948;6.132;2024-01-07T07:55:32;0.30;89.20
48579;DHT22;34357;51.948;6.132;2024-01-07T07:57:58;0.10;89.20
48579;DHT22;34357;51.948;6.132;2024-01-07T08:00:24;0.10;89.20
48579;DHT22;34357;51.948;6.132;2024-01-07T08:02:50;0.10;89.40
48579;DHT22;34357;51.948;6.132;2024-01-07T08:05:16;0.10;89.60
48579;DHT22;34357;51.948;6.132;2024-01-07T08:07:42;0.10;89.70
48579;DHT22;34357;51.948;6.132;2024-01-07T08:10:08;0.10;89.70
48579;DHT22;34357;51.948;6.132;2024-01-07T08:12:35;0.10;89.80
48579;DHT22;34357;51.948;6.132;2024-01-07T08:15:01;0.00;90.00
48579;DHT22;34357;51.948;6.132;2024-01-07T08:17:27;0.00;90.00
48579;DHT22;34357;51.948;6.132;2024-01-07T08:19:54;0.00;90.20
48579;DHT22;34357;51.948;6.132;2024-01-07T08:22:21;0.00;90.30
48579;DHT22;34357;51.948;6.132;2024-01-07T08:24:47;0.00;90.40
48579;DHT22;34357;51.948;6.132;2024-01-07T08:27:13;0.00;90.50
48579;DHT22;34357;51.948;6.132;2024-01-07T08:29:39;0.00;90.50
48579;DHT22;34357;51.948;6.132;2024-01-07T08:32:08;0.00;90.60
48579;DHT22;34357;51.948;6.132;2024-01-07T08:34:35;0.00;90.40
48579;DHT22;34357;51.948;6.132;2024-01-07T08:37:00;0.00;90.40
48579;DHT22;34357;51.948;6.132;2024-01-07T08:39:27;0.00;90.40
48579;DHT22;34357;51.948;6.132;2024-01-07T08:41:54;0.00;90.30
48579;DHT22;34357;51.948;6.132;2024-01-07T08:44:20;0.00;90.30
48579;DHT22;34357;51.948;6.132;2024-01-07T08:46:46;0.00;90.00
48579;DHT22;34357;51.948;6.132;2024-01-07T08:49:12;0.00;89.90
48579;DHT22;34357;51.948;6.132;2024-01-07T08:51:39;0.00;89.70
48579;DHT22;34357;51.948;6.132;2024-01-07T08:54:05;0.00;89.20
48579;DHT22;34357;51.948;6.132;2024-01-07T08:56:31;0.00;88.80
48579;DHT22;34357;51.948;6.132;2024-01-07T08:58:57;0.00;88.70
48579;DHT22;34357;51.948;6.132;2024-01-07T09:01:24;0.00;88.80
48579;DHT22;34357;51.948;6.132;2024-01-07T09:03:50;0.00;88.70
48579;DHT22;34357;51.948;6.132;2024-01-07T09:06:16;0.10;88.60
48579;DHT22;34357;51.948;6.132;2024-01-07T09:08:42;0.00;88.60
48579;DHT22;34357;51.948;6.132;2024-01-07T09:11:08;0.10;88.80
48579;DHT22;34357;51.948;6.132;2024-01-07T09:13:37;0.00;88.50
48579;DHT22;34357;51.948;6.132;2024-01-07T09:16:03;0.10;88.40
48579;DHT22;34357;51.948;6.132;2024-01-07T09:18:29;0.00;88.00
48579;DHT22;34357;51.948;6.132;2024-01-07T09:20:59;0.00;87.80
48579;DHT22;34357;51.948;6.132;2024-01-07T09:23:25;0.10;87.60
48579;DHT22;34357;51.948;6.132;2024-01-07T09:25:51;0.00;87.40
48579;DHT22;34357;51.948;6.132;2024-01-07T09:28:17;0.10;87.10
48579;DHT22;34357;51.948;6.132;2024-01-07T09:30:43;0.10;86.90
48579;DHT22;34357;51.948;6.132;2024-01-07T09:33:12;0.10;86.90
48579;DHT22;34357;51.948;6.132;2024-01-07T09:35:39;0.10;86.90
48579;DHT22;34357;51.948;6.132;2024-01-07T09:38:05;0.10;86.70
48579;DHT22;34357;51.948;6.132;2024-01-07T09:40:31;0.10;86.10
48579;DHT22;34357;51.948;6.132;2024-01-07T09:42:57;0.20;86.00
48579;DHT22;34357;51.948;6.132;2024-01-07T09:45:25;0.20;85.80
48579;DHT22;34357;51.948;6.132;2024-01-07T09:47:52;0.30;85.80
48579;DHT22;34357;51.948;6.132;2024-01-07T09:50:18;0.30;85.90
48579;DHT22;34357;51.948;6.132;2024-01-07T09:52:44;0.30;86.10
48579;DHT22;34357;51.948;6.132;2024-01-07T09:55:15;0.30;86.20
48579;DHT22;34357;51.948;6.132;2024-01-07T09:57:44;0.40;86.00
48579;DHT22;34357;51.948;6.132;2024-01-07T10:00:11;0.30;85.70
48579;DHT22;34357;51.948;6.132;2024-01-07T10:02:40;0.30;85.80
48579;DHT22;34357;51.948;6.132;2024-01-07T10:05:07;0.40;85.10
48579;DHT22;34357;51.948;6.132;2024-01-07T10:07:33;0.40;85.00
48579;DHT22;34357;51.948;6.132;2024-01-07T10:10:17;0.40;84.60
48579;DHT22;34357;51.948;6.132;2024-01-07T10:12:46;0.40;84.90
48579;DHT22;34357;51.948;6.132;2024-01-07T10:15:13;0.50;85.30
48579;DHT22;34357;51.948;6.132;2024-01-07T10:17:43;0.50;85.10
48579;DHT22;34357;51.948;6.132;2024-01-07T10:20:11;0.60;85.00
48579;DHT22;34357;51.948;6.132;2024-01-07T10:22:38;0.60;85.00
48579;DHT22;34357;51.948;6.132;2024-01-07T10:25:05;0.60;84.20
48579;DHT22;34357;51.948;6.132;2024-01-07T10:27:38;0.60;84.00
48579;DHT22;34357;51.948;6.132;2024-01-07T10:30:04;0.70;84.10
48579;DHT22;34357;51.948;6.132;2024-01-07T10:32:35;0.60;83.50
48579;DHT22;34357;51.948;6.132;2024-01-07T10:35:03;0.60;83.10
48579;DHT22;34357;51.948;6.132;2024-01-07T10:37:30;0.80;83.40
48579;DHT22;34357;51.948;6.132;2024-01-07T10:40:00;0.70;82.80
48579;DHT22;34357;51.948;6.132;2024-01-07T10:42:33;0.60;82.30
48579;DHT22;34357;51.948;6.132;2024-01-07T10:45:02;0.60;81.50
48579;DHT22;34357;51.948;6.132;2024-01-07T10:47:30;0.50;82.00
48579;DHT22;34357;51.948;6.132;2024-01-07T10:50:00;0.60;81.80
48579;DHT22;34357;51.948;6.132;2024-01-07T10:52:28;0.50;82.10
48579;DHT22;34357;51.948;6.132;2024-01-07T10:54:56;0.60;81.90
48579;DHT22;34357;51.948;6.132;2024-01-07T10:57:43;0.60;82.10
48579;DHT22;34357;51.948;6.132;2024-01-07T11:00:12;0.60;81.90
48579;DHT22;34357;51.948;6.132;2024-01-07T11:02:52;0.70;82.10
48579;DHT22;34357;51.948;6.132;2024-01-07T11:09:06;0.70;82.20
48579;DHT22;34357;51.948;6.132;2024-01-07T11:11:17;0.60;81.40
48579;DHT22;34357;51.948;6.132;2024-01-07T11:13:44;0.60;81.40
48579;DHT22;34357;51.948;6.132;2024-01-07T11:16:10;0.70;81.90
48579;DHT22;34357;51.948;6.132;2024-01-07T11:18:40;0.70;81.90
48579;DHT22;34357;51.948;6.132;2024-01-07T11:21:11;0.80;81.00
48579;DHT22;34357;51.948;6.132;2024-01-07T11:23:44;0.80;80.50
48579;DHT22;34357;51.948;6.132;2024-01-07T11:26:12;0.70;80.40
48579;DHT22;34357;51.948;6.132;2024-01-07T11:28:57;0.60;80.70
48579;DHT22;34357;51.948;6.132;2024-01-07T11:34:05;0.50;80.50
48579;DHT22;34357;51.948;6.132;2024-01-07T11:36:35;0.50;80.00
48579;DHT22;34357;51.948;6.132;2024-01-07T11:39:02;0.50;79.30
48579;DHT22;34357;51.948;6.132;2024-01-07T11:41:33;0.40;79.30
48579;DHT22;34357;51.948;6.132;2024-01-07T11:44:00;0.30;79.10
48579;DHT22;34357;51.948;6.132;2024-01-07T11:46:27;0.20;78.40
48579;DHT22;34357;51.948;6.132;2024-01-07T11:48:54;0.30;79.10
48579;DHT22;34357;51.948;6.132;2024-01-07T11:51:27;0.40;79.20
48579;DHT22;34357;51.948;6.132;2024-01-07T11:53:54;0.40;78.20
48579;DHT22;34357;51.948;6.132;2024-01-07T11:56:20;0.50;78.10
48579;DHT22;34357;51.948;6.132;2024-01-07T11:58:46;0.60;77.20
48579;DHT22;34357;51.948;6.132;2024-01-07T12:01:14;0.60;76.70
48579;DHT22;34357;51.948;6.132;2024-01-07T12:03:43;0.60;76.30
48579;DHT22;34357;51.948;6.132;2024-01-07T12:06:09;0.60;76.30
48579;DHT22;34357;51.948;6.132;2024-01-07T12:08:43;0.70;76.40
48579;DHT22;34357;51.948;6.132;2024-01-07T12:11:11;0.60;75.90
48579;DHT22;34357;51.948;6.132;2024-01-07T12:13:38;0.60;76.90
48579;DHT22;34357;51.948;6.132;2024-01-07T12:16:05;0.70;77.00
48579;DHT22;34357;51.948;6.132;2024-01-07T12:18:32;0.70;76.60
48579;DHT22;34357;51.948;6.132;2024-01-07T12:20:59;0.60;75.60
48579;DHT22;34357;51.948;6.132;2024-01-07T12:23:26;0.70;75.20
48579;DHT22;34357;51.948;6.132;2024-01-07T12:25:53;0.70;75.60
48579;DHT22;34357;51.948;6.132;2024-01-07T12:28:19;0.80;75.50
48579;DHT22;34357;51.948;6.132;2024-01-07T12:30:47;0.90;75.80
48579;DHT22;34357;51.948;6.132;2024-01-07T12:33:20;0.90;73.80
48579;DHT22;34357;51.948;6.132;2024-01-07T12:35:47;0.80;74.50
48579;DHT22;34357;51.948;6.132;2024-01-07T12:38:25;0.70;75.30
48579;DHT22;34357;51.948;6.132;2024-01-07T12:40:54;0.70;75.60
48579;DHT22;34357;51.948;6.132;2024-01-07T12:43:20;0.60;75.90
48579;DHT22;34357;51.948;6.132;2024-01-07T12:45:48;0.50;75.00
48579;DHT22;34357;51.948;6.132;2024-01-07T12:48:14;0.40;75.20
48579;DHT22;34357;51.948;6.132;2024-01-07T12:50:40;0.30;75.00
48579;DHT22;34357;51.948;6.132;2024-01-07T12:53:05;0.30;75.30
48579;DHT22;34357;51.948;6.132;2024-01-07T12:55:32;0.30;76.10
48579;DHT22;34357;51.948;6.132;2024-01-07T12:57:58;0.20;75.30
48579;DHT22;34357;51.948;6.132;2024-01-07T13:00:27;0.20;75.50
48579;DHT22;34357;51.948;6.132;2024-01-07T13:02:54;0.20;75.40
48579;DHT22;34357;51.948;6.132;2024-01-07T13:05:20;0.30;74.70
48579;DHT22;34357;51.948;6.132;2024-01-07T13:07:47;0.20;74.50
48579;DHT22;34357;51.948;6.132;2024-01-07T13:10:13;0.20;74.90
48579;DHT22;34357;51.948;6.132;2024-01-07T13:12:39;0.30;74.70
48579;DHT22;34357;51.948;6.132;2024-01-07T13:15:05;0.20;74.50
48579;DHT22;34357;51.948;6.132;2024-01-07T13:17:31;0.20;74.90
48579;DHT22;34357;51.948;6.132;2024-01-07T13:19:59;0.30;75.00
48579;DHT22;34357;51.948;6.132;2024-01-07T13:22:25;0.30;75.30
48579;DHT22;34357;51.948;6.132;2024-01-07T13:24:51;0.40;74.40
48579;DHT22;34357;51.948;6.132;2024-01-07T13:27:17;0.40;74.40
48579;DHT22;34357;51.948;6.132;2024-01-07T13:29:44;0.40;74.10
48579;DHT22;34357;51.948;6.132;2024-01-07T13:32:15;0.30;73.80
48579;DHT22;34357;51.948;6.132;2024-01-07T13:34:44;0.30;73.80
48579;DHT22;34357;51.948;6.132;2024-01-07T13:37:13;0.30;73.50
48579;DHT22;34357;51.948;6.132;2024-01-07T13:39:39;0.30;73.70
48579;DHT22;34357;51.948;6.132;2024-01-07T13:42:05;0.30;73.40
48579;DHT22;34357;51.948;6.132;2024-01-07T13:44:31;0.30;73.90
48579;DHT22;34357;51.948;6.132;2024-01-07T13:47:03;0.40;74.40
48579;DHT22;34357;51.948;6.132;2024-01-07T13:49:31;0.50;75.30
48579;DHT22;34357;51.948;6.132;2024-01-07T13:51:58;0.50;75.30
48579;DHT22;34357;51.948;6.132;2024-01-07T13:54:24;0.50;74.90
48579;DHT22;34357;51.948;6.132;2024-01-07T13:56:50;0.50;74.80
48579;DHT22;34357;51.948;6.132;2024-01-07T13:59:16;0.50;74.40
48579;DHT22;34357;51.948;6.132;2024-01-07T14:01:43;0.50;74.10
48579;DHT22;34357;51.948;6.132;2024-01-07T14:04:09;0.50;74.10
48579;DHT22;34357;51.948;6.132;2024-01-07T14:06:35;0.40;74.20
48579;DHT22;34357;51.948;6.132;2024-01-07T14:09:00;0.50;73.70
48579;DHT22;34357;51.948;6.132;2024-01-07T14:11:28;0.50;73.40
48579;DHT22;34357;51.948;6.132;2024-01-07T14:13:54;0.50;73.80
48579;DHT22;34357;51.948;6.132;2024-01-07T14:16:20;0.40;73.90
48579;DHT22;34357;51.948;6.132;2024-01-07T14:18:45;0.50;73.70
48579;DHT22;34357;51.948;6.132;2024-01-07T14:21:11;0.50;73.70
48579;DHT22;34357;51.948;6.132;2024-01-07T14:23:43;0.50;73.80
48579;DHT22;34357;51.948;6.132;2024-01-07T14:26:09;0.50;73.10
48579;DHT22;34357;51.948;6.132;2024-01-07T14:28:35;0.40;72.90
48579;DHT22;34357;51.948;6.132;2024-01-07T14:31:02;0.40;73.70
48579;DHT22;34357;51.948;6.132;2024-01-07T14:33:29;0.40;73.50
48579;DHT22;34357;51.948;6.132;2024-01-07T14:35:55;0.50;73.50
48579;DHT22;34357;51.948;6.132;2024-01-07T14:38:21;0.50;73.70
48579;DHT22;34357;51.948;6.132;2024-01-07T14:40:48;0.50;73.30
48579;DHT22;34357;51.948;6.132;2024-01-07T14:43:14;0.40;73.70
48579;DHT22;34357;51.948;6.132;2024-01-07T14:45:40;0.40;73.90
48579;DHT22;34357;51.948;6.132;2024-01-07T14:48:06;0.40;73.80
48579;DHT22;34357;51.948;6.132;2024-01-07T14:50:32;0.30;74.50
48579;DHT22;34357;51.948;6.132;2024-01-07T14:52:58;0.30;74.30
48579;DHT22;34357;51.948;6.132;2024-01-07T14:55:23;0.30;74.60
48579;DHT22;34357;51.948;6.132;2024-01-07T14:57:49;0.30;74.60
48579;DHT22;34357;51.948;6.132;2024-01-07T15:00:15;0.30;74.50
48579;DHT22;34357;51.948;6.132;2024-01-07T15:02:41;0.30;74.70
48579;DHT22;34357;51.948;6.132;2024-01-07T15:05:08;0.30;74.40
48579;DHT22;34357;51.948;6.132;2024-01-07T15:07:34;0.30;75.00
48579;DHT22;34357;51.948;6.132;2024-01-07T15:10:00;0.40;75.10
48579;DHT22;34357;51.948;6.132;2024-01-07T15:12:26;0.40;75.40
48579;DHT22;34357;51.948;6.132;2024-01-07T15:15:02;0.40;75.90
48579;DHT22;34357;51.948;6.132;2024-01-07T15:17:31;0.30;76.10
48579;DHT22;34357;51.948;6.132;2024-01-07T15:19:57;0.40;76.30
48579;DHT22;34357;51.948;6.132;2024-01-07T15:22:23;0.30;76.60
48579;DHT22;34357;51.948;6.132;2024-01-07T15:24:49;0.30;76.70
48579;DHT22;34357;51.948;6.132;2024-01-07T15:27:18;0.20;77.10
48579;DHT22;34357;51.948;6.132;2024-01-07T15:29:44;0.20;77.40
48579;DHT22;34357;51.948;6.132;2024-01-07T15:32:10;0.10;77.60
48579;DHT22;34357;51.948;6.132;2024-01-07T15:34:35;0.00;77.20
48579;DHT22;34357;51.948;6.132;2024-01-07T15:37:02;0.00;76.90
48579;DHT22;34357;51.948;6.132;2024-01-07T15:39:27;0.10;76.50
48579;DHT22;34357;51.948;6.132;2024-01-07T15:41:53;0.00;76.80
48579;DHT22;34357;51.948;6.132;2024-01-07T15:44:20;0.00;76.80
48579;DHT22;34357;51.948;6.132;2024-01-07T15:46:55;0.00;77.20
48579;DHT22;34357;51.948;6.132;2024-01-07T15:49:38;-0.10;77.80